createdAt,value
2018-03-28T00:01:38.565Z,48.20
2018-03-28T00:04:07.473Z,48.30
2018-03-28T00:06:35.652Z,48.50
2018-03-28T00:09:03.816Z,48.30
2018-03-28T00:11:31.946Z,48.30
2018-03-28T00:14:00.070Z,48.30
2018-03-28T00:16:28.212Z,48.30
2018-03-28T00:18:57.093Z,48.40
2018-03-28T00:21:26.016Z,48.40
2018-03-28T00:23:54.147Z,48.40
2018-03-28T00:26:22.263Z,48.40
2018-03-28T00:28:50.428Z,48.20
2018-03-28T00:31:18.569Z,48.10
2018-03-28T00:33:47.506Z,48.40
2018-03-28T00:36:15.671Z,48.00
2018-03-28T00:38:43.803Z,48.30
2018-03-28T00:41:12.697Z,48.30
2018-03-28T00:43:41.620Z,48.30
2018-03-28T00:46:09.748Z,48.50
2018-03-28T00:48:37.871Z,48.30
2018-03-28T00:51:23.856Z,48.20
2018-03-28T00:53:51.987Z,48.20
2018-03-28T00:56:20.169Z,48.20
2018-03-28T00:58:48.282Z,48.30
2018-03-28T01:01:16.415Z,48.40
2018-03-28T01:03:45.306Z,48.20
2018-03-28T01:06:14.212Z,48.30
2018-03-28T01:08:42.342Z,48.40
2018-03-28T01:11:10.482Z,48.30
2018-03-28T01:13:38.649Z,48.30
2018-03-28T01:16:06.792Z,48.40
2018-03-28T01:18:35.803Z,48.30
2018-03-28T01:21:03.962Z,48.40
2018-03-28T01:23:32.110Z,48.50
2018-03-28T01:26:01.001Z,48.50
2018-03-28T01:28:29.937Z,48.60
2018-03-28T01:30:58.324Z,48.70
2018-03-28T01:33:26.452Z,48.50
2018-03-28T01:35:55.373Z,48.80
2018-03-28T01:38:23.510Z,48.50
2018-03-28T01:40:53.047Z,48.60
2018-03-28T01:43:21.216Z,48.80
2018-03-28T01:45:49.355Z,48.60
2018-03-28T01:48:18.251Z,48.40
2018-03-28T01:50:47.166Z,48.60
2018-03-28T01:53:15.290Z,48.60
2018-03-28T01:55:43.535Z,48.50
2018-03-28T01:58:11.691Z,48.50
2018-03-28T02:00:39.817Z,48.50
2018-03-28T02:03:07.956Z,49.10
2018-03-28T02:05:36.111Z,49.20
2018-03-28T02:08:04.237Z,49.10
2018-03-28T02:10:32.357Z,48.70
2018-03-28T02:13:00.511Z,48.20
2018-03-28T02:15:28.643Z,48.70
2018-03-28T02:17:56.775Z,48.80
2018-03-28T02:20:24.933Z,48.80
2018-03-28T02:22:53.072Z,48.90
2018-03-28T02:25:21.211Z,48.90
2018-03-28T02:27:49.356Z,48.90
2018-03-28T02:30:17.491Z,48.80
2018-03-28T02:32:46.403Z,48.80
2018-03-28T02:35:14.551Z,49.00
2018-03-28T02:37:42.691Z,48.80
2018-03-28T02:40:10.852Z,49.50
2018-03-28T02:42:39.028Z,49.70
2018-03-28T02:45:07.171Z,49.80
2018-03-28T02:47:35.309Z,49.60
2018-03-28T02:50:03.487Z,49.50
2018-03-28T02:52:32.424Z,48.90
2018-03-28T02:55:00.584Z,48.90
2018-03-28T02:57:28.726Z,48.80
2018-03-28T02:59:57.756Z,49.50
2018-03-28T03:02:25.904Z,49.60
2018-03-28T03:04:54.064Z,49.60
2018-03-28T03:07:23.006Z,49.70
2018-03-28T03:09:51.164Z,49.90
2018-03-28T03:12:19.375Z,49.40
2018-03-28T03:14:47.531Z,49.00
2018-03-28T03:17:15.655Z,49.00
2018-03-28T03:19:44.547Z,49.30
2018-03-28T03:22:12.691Z,49.50
2018-03-28T03:24:40.815Z,49.40
2018-03-28T03:27:08.961Z,49.20
2018-03-28T03:29:37.881Z,49.80
2018-03-28T03:32:06.078Z,49.90
2018-03-28T03:34:34.215Z,49.70
2018-03-28T03:37:02.451Z,50.10
2018-03-28T03:39:30.550Z,49.80
2018-03-28T03:41:58.695Z,50.00
2018-03-28T03:44:26.865Z,49.60
2018-03-28T03:46:55.007Z,49.70
2018-03-28T03:49:23.155Z,49.70
2018-03-28T03:51:51.325Z,49.70
2018-03-28T03:54:19.455Z,49.60
2018-03-28T03:56:47.682Z,49.70
2018-03-28T03:59:15.843Z,49.70
2018-03-28T04:01:43.990Z,49.50
2018-03-28T04:04:12.915Z,50.30
2018-03-28T04:06:41.043Z,50.10
2018-03-28T04:09:09.251Z,50.20
2018-03-28T04:11:37.403Z,50.30
2018-03-28T04:14:06.333Z,50.30
2018-03-28T04:16:34.472Z,50.20
2018-03-28T04:19:02.644Z,51.50
2018-03-28T04:21:31.552Z,50.40
2018-03-28T04:23:59.690Z,50.40
2018-03-28T04:26:28.591Z,51.30
2018-03-28T04:28:57.492Z,50.70
2018-03-28T04:31:25.633Z,50.80
2018-03-28T04:33:53.757Z,50.70
2018-03-28T04:36:21.915Z,50.60
2018-03-28T04:38:50.068Z,50.50
2018-03-28T04:41:19.443Z,50.90
2018-03-28T04:43:47.637Z,51.10
2018-03-28T04:46:16.544Z,50.50
2018-03-28T04:48:45.195Z,50.60
2018-03-28T04:51:13.362Z,50.40
2018-03-28T04:53:41.483Z,50.10
2018-03-28T04:56:10.404Z,50.20
2018-03-28T04:58:38.688Z,50.00
2018-03-28T05:01:06.822Z,50.00
2018-03-28T05:03:34.949Z,50.00
2018-03-28T05:06:03.099Z,49.70
2018-03-28T05:08:31.234Z,49.70
2018-03-28T05:10:59.368Z,51.50
2018-03-28T05:13:27.524Z,52.00
2018-03-28T05:15:55.677Z,51.50
2018-03-28T05:18:23.797Z,51.20
2018-03-28T05:20:52.728Z,50.60
2018-03-28T05:23:20.903Z,50.70
2018-03-28T05:25:49.039Z,50.30
2018-03-28T05:28:18.056Z,50.80
2018-03-28T05:33:49.195Z,50.60
2018-03-28T05:36:17.468Z,50.20
2018-03-28T05:38:46.358Z,50.90
2018-03-28T05:41:15.688Z,50.60
2018-03-28T05:43:44.017Z,50.90
2018-03-28T05:46:12.156Z,50.90
2018-03-28T05:48:40.307Z,52.00
2018-03-28T05:51:08.452Z,50.50
2018-03-28T05:53:37.399Z,51.20
2018-03-28T05:56:05.551Z,51.20
2018-03-28T05:58:33.724Z,51.20
2018-03-28T06:01:02.648Z,51.90
2018-03-28T06:03:30.803Z,51.90
2018-03-28T06:05:58.943Z,51.50
2018-03-28T06:08:27.136Z,53.20
2018-03-28T06:10:55.274Z,53.20
2018-03-28T06:13:24.195Z,55.40
2018-03-28T06:15:52.327Z,55.40
2018-03-28T06:18:21.239Z,53.80
2018-03-28T06:20:49.592Z,53.70
2018-03-28T06:23:18.554Z,53.70
2018-03-28T06:25:46.756Z,53.60
2018-03-28T06:28:15.685Z,54.40
2018-03-28T06:30:43.853Z,54.60
2018-03-28T06:33:11.983Z,54.50
2018-03-28T06:35:40.200Z,54.80
2018-03-28T06:38:08.356Z,56.00
2018-03-28T06:40:36.524Z,55.90
2018-03-28T06:43:04.676Z,56.40
2018-03-28T06:45:33.586Z,58.30
2018-03-28T06:48:01.741Z,57.10
2018-03-28T06:50:30.634Z,59.20
2018-03-28T06:52:58.788Z,58.00
2018-03-28T06:55:26.913Z,58.10
2018-03-28T06:57:55.052Z,58.20
2018-03-28T07:00:23.961Z,60.00
2018-03-28T07:02:52.543Z,58.80
2018-03-28T07:05:20.741Z,59.20
2018-03-28T07:07:48.882Z,59.30
2018-03-28T07:10:17.064Z,59.60
2018-03-28T07:12:45.202Z,60.20
2018-03-28T07:15:13.337Z,60.20
2018-03-28T07:17:41.479Z,60.60
2018-03-28T07:20:09.608Z,60.80
2018-03-28T07:22:38.538Z,60.70
2018-03-28T07:25:06.692Z,60.70
2018-03-28T07:27:35.632Z,60.30
2018-03-28T07:30:13.981Z,60.40
2018-03-28T07:32:42.301Z,59.90
2018-03-28T07:35:10.430Z,59.70
2018-03-28T07:37:38.545Z,59.60
2018-03-28T07:40:06.692Z,60.00
2018-03-28T07:42:35.582Z,61.50
2018-03-28T07:45:04.495Z,60.00
2018-03-28T07:47:32.630Z,60.10
2018-03-28T07:50:01.558Z,59.70
2018-03-28T07:52:29.693Z,59.90
2018-03-28T07:54:58.628Z,59.70
2018-03-28T07:57:26.772Z,61.00
2018-03-28T07:59:55.662Z,59.80
2018-03-28T08:02:24.616Z,60.00
2018-03-28T08:04:52.962Z,59.80
2018-03-28T08:07:21.102Z,59.70
2018-03-28T08:09:49.217Z,59.70
2018-03-28T08:12:18.301Z,60.10
2018-03-28T08:14:46.470Z,60.60
2018-03-28T08:17:14.591Z,61.00
2018-03-28T08:19:42.752Z,61.70
2018-03-28T08:22:11.026Z,62.50
2018-03-28T08:24:39.171Z,62.40
2018-03-28T08:27:07.323Z,62.50
2018-03-28T08:29:35.481Z,62.50
2018-03-28T08:32:04.389Z,62.50
2018-03-28T08:34:32.543Z,62.50
2018-03-28T08:37:01.444Z,61.70
2018-03-28T08:39:29.618Z,61.70
2018-03-28T08:41:57.791Z,61.70
2018-03-28T08:44:25.932Z,62.20
2018-03-28T08:46:54.099Z,62.50
2018-03-28T08:49:22.254Z,63.70
2018-03-28T08:51:50.400Z,62.50
2018-03-28T08:54:18.596Z,62.50
2018-03-28T08:56:46.727Z,62.50
2018-03-28T08:59:14.972Z,62.20
2018-03-28T09:01:43.152Z,62.50
2018-03-28T09:04:12.072Z,62.20
2018-03-28T09:06:40.202Z,62.20
2018-03-28T09:09:08.374Z,61.60
2018-03-28T09:11:36.586Z,61.70
2018-03-28T09:14:05.460Z,61.70
2018-03-28T09:16:34.352Z,61.60
2018-03-28T09:19:02.511Z,61.60
2018-03-28T09:21:31.401Z,60.80
2018-03-28T09:24:00.315Z,60.00
2018-03-28T09:26:28.508Z,60.10
2018-03-28T09:28:56.682Z,60.20
2018-03-28T09:31:24.805Z,60.60
2018-03-28T09:33:53.756Z,60.60
2018-03-28T09:36:21.912Z,60.60
2018-03-28T09:38:50.040Z,61.00
2018-03-28T09:41:18.979Z,62.00
2018-03-28T09:43:47.123Z,62.10
2018-03-28T09:46:15.261Z,61.20
2018-03-28T09:48:43.433Z,62.00
2018-03-28T09:51:11.547Z,61.80
2018-03-28T09:53:39.783Z,61.00
2018-03-28T09:56:07.954Z,60.50
2018-03-28T09:58:36.173Z,60.80
2018-03-28T10:01:08.246Z,61.10
2018-03-28T10:03:42.007Z,61.10
2018-03-28T10:06:10.138Z,61.20
2018-03-28T10:08:38.326Z,60.50
2018-03-28T10:11:06.843Z,60.90
2018-03-28T10:13:35.785Z,60.50
2018-03-28T10:16:03.978Z,60.60
2018-03-28T10:18:32.212Z,60.60
2018-03-28T10:21:00.379Z,60.30
2018-03-28T10:23:28.667Z,60.30
2018-03-28T10:25:56.810Z,60.30
2018-03-28T10:28:25.731Z,60.00
2018-03-28T10:30:55.242Z,60.00
2018-03-28T10:33:23.375Z,59.80
2018-03-28T10:35:52.336Z,59.20
2018-03-28T10:38:20.487Z,59.20
2018-03-28T10:40:48.694Z,59.30
2018-03-28T10:43:16.835Z,59.00
2018-03-28T10:45:44.967Z,58.50
2018-03-28T10:48:13.127Z,58.70
2018-03-28T10:50:42.024Z,58.00
2018-03-28T10:53:10.156Z,58.10
2018-03-28T10:55:38.310Z,58.60
2018-03-28T10:58:06.456Z,57.30
2018-03-28T11:00:34.620Z,57.40
2018-03-28T11:03:02.749Z,57.90
2018-03-28T11:05:30.891Z,57.70
2018-03-28T11:07:59.012Z,57.90
2018-03-28T11:10:27.924Z,58.20
2018-03-28T11:12:56.115Z,58.10
2018-03-28T11:15:24.356Z,57.90
2018-03-28T11:17:52.510Z,58.40
2018-03-28T11:20:20.656Z,58.70
2018-03-28T11:22:48.803Z,58.60
2018-03-28T11:25:16.919Z,58.60
2018-03-28T11:27:45.040Z,58.60
2018-03-28T11:30:13.189Z,59.10
2018-03-28T11:32:42.192Z,59.30
2018-03-28T11:35:10.320Z,59.30
2018-03-28T11:37:38.452Z,59.30
2018-03-28T11:40:06.603Z,59.10
2018-03-28T11:42:35.502Z,58.80
2018-03-28T11:45:03.620Z,58.80
2018-03-28T11:47:31.767Z,58.60
2018-03-28T11:49:59.891Z,58.60
2018-03-28T11:52:28.807Z,59.10
2018-03-28T11:54:57.319Z,58.70
2018-03-28T11:57:25.482Z,58.20
2018-03-28T11:59:53.598Z,58.50
2018-03-28T12:02:21.732Z,58.00
2018-03-28T12:04:49.909Z,57.70
2018-03-28T12:07:18.051Z,56.50
2018-03-28T12:09:46.187Z,56.50
2018-03-28T12:12:14.339Z,56.10
2018-03-28T12:14:42.465Z,55.70
2018-03-28T12:17:10.638Z,56.20
2018-03-28T12:19:38.775Z,55.40
2018-03-28T12:22:06.902Z,56.10
2018-03-28T12:24:35.080Z,56.40
2018-03-28T12:27:03.224Z,58.20
2018-03-28T12:29:31.350Z,56.80
2018-03-28T12:31:59.492Z,57.10
2018-03-28T12:34:27.652Z,58.00
2018-03-28T12:36:55.797Z,58.20
2018-03-28T12:39:24.725Z,57.90
2018-03-28T12:41:52.901Z,57.90
2018-03-28T12:44:21.028Z,57.50
2018-03-28T12:46:49.147Z,57.80
2018-03-28T12:49:17.353Z,57.80
2018-03-28T12:51:45.506Z,57.50
2018-03-28T12:54:13.635Z,57.10
2018-03-28T12:56:41.796Z,57.60
2018-03-28T12:59:10.687Z,56.50
2018-03-28T13:01:39.584Z,56.40
2018-03-28T13:04:08.575Z,56.40
2018-03-28T13:06:37.545Z,56.40
2018-03-28T13:09:05.710Z,56.40
2018-03-28T13:11:33.869Z,56.90
2018-03-28T13:14:03.716Z,57.20
2018-03-28T13:16:32.637Z,56.80
2018-03-28T13:19:00.787Z,56.70
2018-03-28T13:21:29.712Z,57.10
2018-03-28T13:23:57.831Z,56.90
2018-03-28T13:26:25.957Z,57.60
2018-03-28T13:28:54.107Z,57.60
2018-03-28T13:31:22.243Z,57.70
2018-03-28T13:33:50.423Z,57.90
2018-03-28T13:36:18.562Z,57.70
2018-03-28T13:38:46.725Z,57.80
2018-03-28T13:41:14.840Z,59.00
2018-03-28T13:43:42.959Z,57.60
2018-03-28T13:46:11.117Z,59.10
2018-03-28T13:48:39.287Z,57.40
2018-03-28T13:51:07.407Z,57.40
2018-03-28T13:53:35.555Z,57.10
2018-03-28T13:56:03.708Z,57.20
2018-03-28T13:58:31.832Z,56.00
2018-03-28T14:01:00.328Z,56.20
2018-03-28T14:03:29.234Z,55.90
2018-03-28T14:05:57.379Z,56.10
2018-03-28T14:08:26.282Z,56.50
2018-03-28T14:10:55.208Z,56.10
2018-03-28T14:13:23.364Z,56.10
2018-03-28T14:15:51.495Z,56.20
2018-03-28T14:18:19.636Z,56.80
2018-03-28T14:20:47.771Z,56.60
2018-03-28T14:23:16.674Z,57.80
2018-03-28T14:25:44.812Z,57.70
2018-03-28T14:28:12.946Z,57.80
2018-03-28T14:30:41.109Z,57.50
2018-03-28T14:33:09.244Z,57.40
2018-03-28T14:35:38.184Z,57.70
2018-03-28T14:38:06.304Z,57.60
2018-03-28T14:40:35.540Z,58.70
2018-03-28T14:43:03.692Z,58.50
2018-03-28T14:45:31.936Z,58.40
2018-03-28T14:48:00.075Z,58.40
2018-03-28T14:50:28.224Z,58.80
2018-03-28T14:52:56.437Z,59.50
2018-03-28T14:55:24.580Z,58.50
2018-03-28T14:57:52.708Z,59.90
2018-03-28T15:00:21.641Z,60.30
2018-03-28T15:02:49.753Z,60.20
2018-03-28T15:05:17.883Z,60.60
2018-03-28T15:07:46.027Z,61.70
2018-03-28T15:10:14.917Z,61.50
2018-03-28T15:12:43.997Z,60.30
2018-03-28T15:15:12.991Z,61.70
2018-03-28T15:17:42.120Z,60.60
2018-03-28T15:20:10.274Z,60.70
2018-03-28T15:22:38.400Z,60.30
2018-03-28T15:25:06.607Z,60.60
2018-03-28T15:27:35.498Z,60.00
2018-03-28T15:30:04.434Z,59.90
2018-03-28T15:32:32.584Z,60.00
2018-03-28T15:35:00.707Z,59.70
2018-03-28T15:37:28.868Z,60.00
2018-03-28T15:39:56.999Z,60.10
2018-03-28T15:42:25.127Z,60.60
2018-03-28T15:44:53.276Z,60.40
2018-03-28T15:47:21.402Z,60.90
2018-03-28T15:49:50.648Z,61.20
2018-03-28T15:52:18.792Z,61.30
2018-03-28T15:54:46.917Z,61.50
2018-03-28T15:57:15.057Z,61.40
2018-03-28T15:59:43.181Z,61.90
2018-03-28T16:02:12.087Z,62.50
2018-03-28T16:04:40.263Z,62.70
2018-03-28T16:07:08.403Z,62.50
2018-03-28T16:09:36.623Z,62.60
2018-03-28T16:12:04.750Z,62.50
2018-03-28T16:14:32.891Z,63.40
2018-03-28T16:17:01.031Z,63.30
2018-03-28T16:19:29.159Z,63.40
2018-03-28T16:21:57.327Z,64.20
2018-03-28T16:24:25.461Z,64.50
2018-03-28T16:26:53.611Z,64.30
2018-03-28T16:29:21.747Z,64.40
2018-03-28T16:31:49.866Z,64.60
2018-03-28T16:34:18.007Z,64.60
2018-03-28T16:36:46.919Z,64.50
2018-03-28T16:39:15.079Z,64.50
2018-03-28T16:41:45.136Z,64.90
2018-03-28T16:44:13.275Z,64.80
2018-03-28T16:46:41.391Z,64.90
2018-03-28T16:49:09.529Z,65.40
2018-03-28T16:51:37.682Z,65.60
2018-03-28T16:54:06.588Z,65.60
2018-03-28T16:56:34.796Z,65.60
2018-03-28T16:59:02.931Z,66.30
2018-03-28T17:01:31.071Z,66.10
2018-03-28T17:03:59.201Z,65.70
2018-03-28T17:06:27.343Z,65.70
2018-03-28T17:08:55.459Z,65.70
2018-03-28T17:11:23.600Z,65.70
2018-03-28T17:13:51.762Z,65.50
2018-03-28T17:16:19.875Z,65.70
2018-03-28T17:18:48.756Z,65.90
2018-03-28T17:21:16.908Z,66.10
2018-03-28T17:23:45.310Z,65.90
2018-03-28T17:26:24.953Z,66.80
2018-03-28T17:28:53.099Z,67.20
2018-03-28T17:31:21.404Z,67.50
2018-03-28T17:33:49.553Z,67.60
2018-03-28T17:36:17.725Z,67.60
2018-03-28T17:38:46.607Z,67.60
2018-03-28T17:41:14.760Z,67.70
2018-03-28T17:43:43.883Z,68.00
2018-03-28T17:46:12.008Z,68.20
2018-03-28T17:48:43.304Z,68.20
2018-03-28T17:51:11.927Z,67.80
2018-03-28T17:53:40.159Z,68.20
2018-03-28T17:56:08.351Z,68.10
2018-03-28T17:58:36.492Z,68.00
2018-03-28T18:01:04.624Z,68.10
2018-03-28T18:03:33.061Z,68.20
2018-03-28T18:06:01.247Z,68.40
2018-03-28T18:08:29.386Z,68.50
2018-03-28T18:10:58.663Z,68.50
2018-03-28T18:13:27.577Z,69.00
2018-03-28T18:15:55.705Z,69.00
2018-03-28T18:18:23.854Z,68.50
2018-03-28T18:20:52.511Z,68.30
2018-03-28T18:23:21.608Z,68.20
2018-03-28T18:25:49.732Z,69.10
2018-03-28T18:28:17.950Z,68.60
2018-03-28T18:30:46.097Z,68.50
2018-03-28T18:33:17.804Z,68.50
2018-03-28T18:35:45.948Z,68.60
2018-03-28T18:38:14.096Z,68.60
2018-03-28T18:40:43.012Z,68.90
2018-03-28T18:43:11.156Z,68.90
2018-03-28T18:45:40.287Z,69.50
2018-03-28T18:48:08.429Z,69.40
2018-03-28T18:50:37.356Z,68.20
2018-03-28T18:53:06.249Z,68.30
2018-03-28T18:55:34.428Z,68.20
2018-03-28T18:58:02.562Z,68.40
2018-03-28T19:00:31.518Z,68.90
2018-03-28T19:02:59.657Z,69.00
2018-03-28T19:05:27.936Z,68.80
2018-03-28T19:07:56.101Z,68.80
2018-03-28T19:10:24.241Z,68.90
2018-03-28T19:12:53.168Z,68.90
2018-03-28T19:15:21.311Z,68.90
2018-03-28T19:17:49.485Z,68.50
2018-03-28T19:20:17.627Z,68.40
2018-03-28T19:22:45.772Z,68.30
2018-03-28T19:25:13.947Z,68.50
2018-03-28T19:27:42.090Z,68.60
2018-03-28T19:30:10.286Z,68.90
2018-03-28T19:32:38.443Z,69.00
2018-03-28T19:35:06.606Z,68.80
2018-03-28T19:37:34.776Z,68.90
2018-03-28T19:40:02.922Z,68.70
2018-03-28T19:42:31.832Z,69.10
2018-03-28T19:44:59.993Z,69.20
2018-03-28T19:47:28.207Z,69.60
2018-03-28T19:49:56.310Z,70.20
2018-03-28T19:52:24.542Z,70.40
2018-03-28T19:54:52.686Z,70.20
2018-03-28T19:57:21.650Z,69.80
2018-03-28T19:59:49.796Z,69.90
2018-03-28T20:02:18.214Z,69.70
2018-03-28T20:04:47.160Z,70.40
2018-03-28T20:07:15.326Z,70.40
2018-03-28T20:09:43.465Z,70.60
2018-03-28T20:12:12.361Z,70.40
2018-03-28T20:14:40.604Z,70.40
2018-03-28T20:17:08.748Z,70.60
2018-03-28T20:19:36.924Z,70.50
2018-03-28T20:22:05.083Z,71.00
2018-03-28T20:24:33.238Z,70.80
2018-03-28T20:27:01.402Z,70.60
2018-03-28T20:29:29.561Z,70.90
2018-03-28T20:31:58.722Z,71.30
2018-03-28T20:34:26.886Z,71.00
2018-03-28T20:36:55.094Z,71.20
2018-03-28T20:39:23.987Z,71.40
2018-03-28T20:42:02.841Z,71.50
2018-03-28T20:44:30.986Z,71.40
2018-03-28T20:46:59.897Z,71.40
2018-03-28T20:49:28.050Z,71.50
2018-03-28T20:51:58.717Z,71.40
2018-03-28T20:54:26.889Z,71.40
2018-03-28T20:56:55.022Z,71.30
2018-03-28T20:59:23.947Z,71.00
2018-03-28T21:01:52.092Z,71.00
2018-03-28T21:04:21.057Z,72.00
2018-03-28T21:06:49.189Z,71.90
2018-03-28T21:09:17.332Z,71.80
2018-03-28T21:11:46.220Z,71.80
2018-03-28T21:14:15.141Z,71.50
2018-03-28T21:16:43.271Z,71.50
2018-03-28T21:19:12.236Z,71.90
2018-03-28T21:21:40.474Z,71.90
2018-03-28T21:24:08.616Z,71.50
2018-03-28T21:26:37.896Z,72.30
2018-03-28T21:29:06.076Z,72.10
2018-03-28T21:31:35.030Z,72.70
2018-03-28T21:34:03.195Z,72.80
2018-03-28T21:36:31.586Z,72.40
2018-03-28T21:39:00.460Z,73.10
2018-03-28T21:41:28.582Z,73.50
2018-03-28T21:43:57.964Z,73.60
2018-03-28T21:46:26.104Z,73.60
2018-03-28T21:48:55.163Z,73.30
2018-03-28T21:51:24.052Z,73.00
2018-03-28T21:53:53.879Z,72.90
2018-03-28T21:56:22.007Z,73.10
2018-03-28T21:58:50.150Z,73.40
2018-03-28T22:01:18.291Z,73.70
2018-03-28T22:03:46.431Z,73.30
2018-03-28T22:06:15.258Z,73.10
2018-03-28T22:08:43.400Z,75.20
2018-03-28T22:11:12.312Z,74.60
2018-03-28T22:13:40.477Z,74.50
2018-03-28T22:16:09.420Z,74.30
2018-03-28T22:18:38.388Z,73.70
2018-03-28T22:21:06.510Z,73.70
2018-03-28T22:23:34.829Z,73.30
2018-03-28T22:26:03.099Z,72.00
2018-03-28T22:28:31.286Z,73.10
2018-03-28T22:30:59.427Z,72.70
2018-03-28T22:33:28.341Z,71.80
2018-03-28T22:35:56.468Z,71.80
2018-03-28T22:38:25.608Z,71.80
2018-03-28T22:40:53.749Z,72.00
2018-03-28T22:43:22.653Z,71.90
2018-03-28T22:45:51.678Z,71.90
2018-03-28T22:48:19.841Z,72.10
2018-03-28T22:50:47.959Z,72.50
2018-03-28T22:53:16.172Z,73.00
2018-03-28T22:55:44.351Z,73.40
2018-03-28T22:58:12.475Z,74.10
2018-03-28T23:00:40.601Z,73.90
2018-03-28T23:03:09.488Z,73.50
2018-03-28T23:05:37.610Z,73.30
2018-03-28T23:08:05.826Z,73.60
2018-03-28T23:10:33.955Z,73.70
2018-03-28T23:13:02.206Z,74.40
2018-03-28T23:15:30.742Z,74.80
2018-03-28T23:17:58.921Z,74.70
2018-03-28T23:20:27.107Z,75.40
2018-03-28T23:22:55.502Z,75.50
2018-03-28T23:25:23.658Z,75.80
2018-03-28T23:27:51.800Z,76.20
2018-03-28T23:30:20.711Z,76.50
2018-03-28T23:32:48.850Z,76.50
2018-03-28T23:35:17.783Z,75.70
2018-03-28T23:37:45.912Z,75.70
2018-03-28T23:40:14.054Z,75.30
2018-03-28T23:42:42.195Z,76.20
2018-03-28T23:45:10.377Z,75.70
2018-03-28T23:47:38.545Z,75.50
2018-03-28T23:50:06.664Z,75.40
2018-03-28T23:52:35.456Z,75.00
2018-03-28T23:55:03.583Z,75.10
2018-03-28T23:57:31.739Z,74.70
2018-03-28T23:59:59.876Z,74.10
